Time;durP1;ratioP1;P1;durP2;ratioP2;P2;SDS_P1;SDS_P2;PMS_P1;PMS_P2;Temp;Humidity;BMP_temperature;BMP_pressure;BME280_temperature;BME280_humidity;BME280_pressure;Samples;Min_cycle;Max_cycle;Signal;HPM_P1;HPM_P2
2022/05/21 00:00:20;;;;;;;6.97;3.45;;;11.40;99.90;;;;;;5070378;28;20040;-81
2022/05/21 00:02:46;;;;;;;9.95;4.15;;;11.40;99.90;;;;;;5087125;28;20756;-80
2022/05/21 00:05:13;;;;;;;7.97;4.00;;;11.40;99.90;;;;;;5087363;28;20033;-80
2022/05/21 00:07:38;;;;;;;11.20;4.63;;;11.30;99.90;;;;;;5069852;28;20051;-81
2022/05/21 00:10:07;;;;;;;9.55;4.00;;;11.30;99.90;;;;;;5070143;28;20044;-79
2022/05/21 00:12:33;;;;;;;11.13;4.22;;;11.30;99.90;;;;;;5087137;28;20093;-80
2022/05/21 00:15:00;;;;;;;7.15;3.97;;;11.30;99.90;;;;;;5074579;28;20058;-79
2022/05/21 00:17:25;;;;;;;8.23;4.40;;;11.30;99.90;;;;;;5071704;28;20499;-80
2022/05/21 00:19:51;;;;;;;7.75;4.20;;;11.60;99.90;;;;;;5089066;28;20036;-80
2022/05/21 00:22:17;;;;;;;13.48;5.05;;;11.30;99.90;;;;;;5072088;28;20047;-78
2022/05/21 00:24:43;;;;;;;8.02;3.95;;;11.30;99.90;;;;;;5090636;28;20535;-80
2022/05/21 00:27:08;;;;;;;13.23;5.03;;;11.30;99.90;;;;;;5091489;28;20051;-79
2022/05/21 00:29:34;;;;;;;12.85;5.85;;;11.30;99.90;;;;;;5073463;28;20381;-81
2022/05/21 00:32:00;;;;;;;16.55;5.30;;;11.30;99.90;;;;;;5072977;28;20185;-78
2022/05/21 00:34:26;;;;;;;10.27;5.38;;;11.30;99.90;;;;;;5070739;28;20131;-79
2022/05/21 00:36:51;;;;;;;11.20;5.30;;;11.30;99.90;;;;;;5091110;28;20048;-80
2022/05/21 00:39:17;;;;;;;9.98;5.43;;;11.30;99.90;;;;;;5070841;28;20177;-80
2022/05/21 00:41:44;;;;;;;17.20;6.45;;;11.30;99.90;;;;;;5073859;28;20136;-79
2022/05/21 00:44:10;;;;;;;19.60;6.25;;;11.30;99.90;;;;;;5071391;28;20044;-78
2022/05/21 00:46:39;;;;;;;20.50;7.20;;;11.30;99.90;;;;;;5091299;28;20044;-78
2022/05/21 00:49:19;;;;;;;14.50;7.60;;;11.40;99.90;;;;;;5069983;28;20398;-78
2022/05/21 00:51:56;;;;;;;24.37;8.90;;;11.30;99.90;;;;;;5091011;28;20050;-79
2022/05/21 00:54:34;;;;;;;18.20;8.27;;;11.40;99.90;;;;;;5091041;28;20199;-79
2022/05/21 00:57:32;;;;;;;16.45;7.28;;;11.40;99.90;;;;;;5089421;28;20143;-78
2022/05/21 01:00:19;;;;;;;15.60;8.40;;;11.40;99.90;;;;;;5091340;28;20074;-80
2022/05/21 01:02:53;;;;;;;21.55;8.07;;;11.50;99.90;;;;;;5069832;28;20055;-79
2022/05/21 01:05:22;;;;;;;23.63;8.73;;;11.50;99.90;;;;;;5070843;28;20093;-77
2022/05/21 01:07:51;;;;;;;18.90;8.45;;;11.50;99.90;;;;;;5082425;28;20047;-77
2022/05/21 01:10:20;;;;;;;15.43;8.02;;;11.50;99.90;;;;;;5091758;28;20036;-78
2022/05/21 01:12:52;;;;;;;18.55;9.35;;;11.60;99.90;;;;;;5091065;28;20036;-77
2022/05/21 01:15:28;;;;;;;22.05;9.50;;;11.60;99.90;;;;;;5091656;28;20345;-78
2022/05/21 01:17:53;;;;;;;19.42;9.75;;;11.60;99.90;;;;;;5070235;28;20162;-79
2022/05/21 01:20:21;;;;;;;17.00;9.63;;;11.60;99.90;;;;;;5091754;28;20484;-79
2022/05/21 01:22:50;;;;;;;18.92;10.18;;;11.70;99.90;;;;;;5069644;28;20040;-79
2022/05/21 01:25:25;;;;;;;18.98;10.93;;;11.70;99.90;;;;;;5071815;28;20044;-79
2022/05/21 01:27:53;;;;;;;18.20;10.43;;;11.70;99.90;;;;;;5090753;28;20068;-79
2022/05/21 01:30:34;;;;;;;22.40;10.80;;;11.60;99.90;;;;;;5086962;28;20040;-78
2022/05/21 01:33:04;;;;;;;18.85;11.68;;;11.70;99.90;;;;;;5066845;28;20060;-80
2022/05/21 01:35:31;;;;;;;17.95;10.68;;;11.70;99.90;;;;;;5086446;28;20044;-77
2022/05/21 01:37:57;;;;;;;16.17;10.60;;;11.70;99.90;;;;;;5067850;28;20395;-78
2022/05/21 01:40:23;;;;;;;21.67;10.93;;;11.70;99.90;;;;;;5091466;28;20053;-79
2022/05/21 01:44:37;;;;;;;20.90;11.13;;;11.70;99.90;;;;;;5072197;28;20150;-76
2022/05/21 01:45:36;;;;;;;21.35;12.18;;;11.80;99.90;;;;;;5089596;28;20479;-77
2022/05/21 01:48:03;;;;;;;19.52;12.07;;;11.80;99.90;;;;;;5087034;28;20052;-78
2022/05/21 01:50:30;;;;;;;23.70;11.77;;;11.80;99.90;;;;;;5071823;28;20817;-78
2022/05/21 01:52:56;;;;;;;22.35;13.02;;;11.80;99.90;;;;;;5071092;28;20036;-77
2022/05/21 01:55:22;;;;;;;25.52;12.80;;;11.90;99.90;;;;;;5089291;28;20131;-76
2022/05/21 01:57:48;;;;;;;23.50;13.60;;;11.90;99.90;;;;;;5089863;28;20146;-77
2022/05/21 02:00:15;;;;;;;26.00;13.55;;;11.90;99.90;;;;;;5090502;28;20097;-76
2022/05/21 02:02:40;;;;;;;24.50;12.90;;;11.90;99.90;;;;;;5070418;28;20484;-76
2022/05/21 02:05:07;;;;;;;28.00;13.48;;;12.00;99.90;;;;;;5088791;28;20039;-77
2022/05/21 02:07:34;;;;;;;20.65;14.00;;;12.00;99.90;;;;;;5090249;28;20040;-78
2022/05/21 02:10:00;;;;;;;25.15;14.85;;;12.00;99.90;;;;;;5091371;28;20483;-77
2022/05/21 02:12:27;;;;;;;25.17;13.57;;;12.10;99.90;;;;;;5088395;28;20039;-78
2022/05/21 02:14:54;;;;;;;23.02;14.13;;;12.10;99.90;;;;;;5090780;28;20476;-77
2022/05/21 02:17:21;;;;;;;26.15;14.52;;;12.10;99.90;;;;;;5070778;28;20044;-77
2022/05/21 02:19:47;;;;;;;27.08;15.10;;;12.20;99.90;;;;;;5089684;28;20451;-77
2022/05/21 02:22:12;;;;;;;26.48;14.85;;;12.20;99.90;;;;;;5088661;28;20237;-79
2022/05/21 02:24:38;;;;;;;26.15;15.77;;;12.40;99.90;;;;;;5088425;28;20047;-77
2022/05/21 02:27:07;;;;;;;32.90;15.32;;;12.30;99.90;;;;;;5088080;28;20387;-79
2022/05/21 02:29:33;;;;;;;35.58;16.83;;;12.30;99.90;;;;;;5068800;28;20143;-78
2022/05/21 02:31:59;;;;;;;28.88;16.30;;;12.40;99.90;;;;;;5071728;28;20475;-79
2022/05/21 02:34:25;;;;;;;23.23;15.65;;;12.40;99.90;;;;;;5068055;28;20471;-79
2022/05/21 02:39:35;;;;;;;28.80;16.10;;;12.40;99.90;;;;;;5087547;28;20036;-77
2022/05/21 02:42:01;;;;;;;34.60;17.23;;;12.50;99.90;;;;;;5089053;28;20062;-78
2022/05/21 02:44:28;;;;;;;30.75;16.98;;;12.50;99.90;;;;;;5069889;28;20093;-79
2022/05/21 02:46:54;;;;;;;32.83;17.08;;;12.50;99.90;;;;;;5087618;28;20119;-78
2022/05/21 02:49:20;;;;;;;32.38;16.35;;;12.60;99.90;;;;;;5068474;28;20120;-77
2022/05/21 02:51:47;;;;;;;33.08;16.70;;;12.60;99.90;;;;;;5088864;28;20547;-77
2022/05/21 02:54:14;;;;;;;32.22;16.30;;;12.60;99.90;;;;;;5067315;28;20571;-79
2022/05/21 02:56:49;;;;;;;30.95;17.88;;;12.60;99.90;;;;;;5069348;28;20167;-77
2022/05/21 02:59:15;;;;;;;31.98;17.25;;;12.60;99.90;;;;;;5089241;28;20123;-77
2022/05/21 03:01:41;;;;;;;28.23;16.40;;;12.70;99.90;;;;;;5088511;28;20058;-77
2022/05/21 03:04:10;;;;;;;35.28;16.92;;;12.70;99.90;;;;;;5070787;28;20052;-77
2022/05/21 03:06:36;;;;;;;35.10;15.70;;;12.70;99.90;;;;;;5089172;28;20085;-77
2022/05/21 03:11:48;;;;;;;23.63;13.65;;;12.80;99.90;;;;;;5071167;28;20068;-78
2022/05/21 03:14:13;;;;;;;29.58;13.18;;;13.00;99.90;;;;;;5089463;28;20412;-77
2022/05/21 03:16:39;;;;;;;26.08;12.98;;;12.80;99.90;;;;;;5066063;28;20048;-77
2022/05/21 03:19:05;;;;;;;31.25;11.90;;;12.90;99.90;;;;;;5085852;28;20108;-77
2022/05/21 03:21:30;;;;;;;31.60;11.50;;;12.90;99.90;;;;;;5070694;28;20052;-77
2022/05/21 03:23:56;;;;;;;21.73;10.02;;;13.00;99.90;;;;;;5069141;28;20451;-76
2022/05/21 03:26:22;;;;;;;25.33;10.35;;;13.00;99.90;;;;;;5088539;28;20047;-79
2022/05/21 03:28:48;;;;;;;24.55;8.15;;;13.00;99.90;;;;;;5086571;28;20062;-76
2022/05/21 03:31:13;;;;;;;29.35;8.18;;;13.00;99.90;;;;;;5085187;28;20056;-76
2022/05/21 03:33:39;;;;;;;25.17;8.25;;;13.10;99.90;;;;;;5087180;28;20439;-79
2022/05/21 03:36:05;;;;;;;28.92;7.78;;;13.10;99.90;;;;;;5087045;28;20040;-77
2022/05/21 03:38:30;;;;;;;25.35;6.85;;;13.10;99.90;;;;;;5068599;28;20040;-76
2022/05/21 03:40:56;;;;;;;30.25;6.88;;;13.20;99.90;;;;;;5068483;28;20135;-75
2022/05/21 03:43:22;;;;;;;30.02;6.65;;;13.20;99.90;;;;;;5064602;28;20071;-77
2022/05/21 03:45:49;;;;;;;28.23;6.05;;;13.20;99.90;;;;;;5068460;28;20055;-75
2022/05/21 03:48:15;;;;;;;33.28;7.38;;;13.20;99.90;;;;;;5086321;28;20032;-76
2022/05/21 03:50:41;;;;;;;26.00;6.30;;;13.30;99.90;;;;;;5067248;28;20050;-75
2022/05/21 03:53:09;;;;;;;25.48;6.43;;;13.30;99.90;;;;;;5088325;28;20256;-77
2022/05/21 03:55:35;;;;;;;29.08;5.80;;;13.30;99.90;;;;;;5087431;28;20056;-76
2022/05/21 03:58:04;;;;;;;25.17;6.50;;;13.30;99.90;;;;;;5050777;28;20397;-76
2022/05/21 04:00:30;;;;;;;18.60;5.30;;;13.40;99.90;;;;;;5069722;28;20076;-76
2022/05/21 04:02:57;;;;;;;20.25;4.90;;;13.40;99.90;;;;;;5075596;28;20076;-76
2022/05/21 04:05:23;;;;;;;19.50;4.70;;;13.40;99.90;;;;;;5071976;28;20044;-76
2022/05/21 04:07:49;;;;;;;16.45;5.10;;;13.40;99.90;;;;;;5050889;28;20050;-76
2022/05/21 04:10:16;;;;;;;27.45;5.80;;;13.40;99.90;;;;;;5068448;28;20460;-77
2022/05/21 04:12:42;;;;;;;29.98;4.70;;;13.40;99.90;;;;;;5067541;28;20036;-76
2022/05/21 04:15:09;;;;;;;18.77;5.25;;;13.50;99.90;;;;;;5067338;28;20048;-76
2022/05/21 04:17:35;;;;;;;21.52;4.78;;;13.50;99.90;;;;;;5048882;28;20051;-76
2022/05/21 04:20:05;;;;;;;17.17;4.38;;;13.50;99.90;;;;;;5046365;28;20076;-76
2022/05/21 04:22:31;;;;;;;19.08;4.82;;;13.50;99.90;;;;;;5065982;28;20052;-76
2022/05/21 04:24:57;;;;;;;24.00;4.45;;;13.50;99.90;;;;;;5062741;28;20036;-76
2022/05/21 04:27:23;;;;;;;23.42;4.93;;;13.60;99.90;;;;;;5068528;28;20063;-76
2022/05/21 04:29:48;;;;;;;16.05;3.95;;;13.60;99.90;;;;;;5067234;28;20056;-76
2022/05/21 04:32:14;;;;;;;18.88;3.85;;;13.60;99.90;;;;;;5047027;28;20383;-77
2022/05/21 04:34:40;;;;;;;20.52;4.03;;;13.60;99.90;;;;;;5069266;28;20383;-77
2022/05/21 04:37:05;;;;;;;16.60;4.25;;;13.60;99.90;;;;;;5066548;28;20139;-76
2022/05/21 04:39:31;;;;;;;19.02;3.60;;;13.60;99.90;;;;;;5047551;28;20033;-76
2022/05/21 04:41:58;;;;;;;21.85;4.65;;;13.60;99.90;;;;;;5063225;28;20114;-76
2022/05/21 04:44:25;;;;;;;14.85;3.75;;;13.60;99.90;;;;;;5063012;28;20119;-76
2022/05/21 04:46:51;;;;;;;20.13;4.65;;;13.60;99.90;;;;;;5044583;28;20472;-75
2022/05/21 04:49:16;;;;;;;14.00;3.35;;;13.60;99.90;;;;;;5059296;28;20052;-76
2022/05/21 04:51:42;;;;;;;14.25;3.83;;;13.70;99.90;;;;;;5048495;28;20072;-75
2022/05/21 04:54:07;;;;;;;21.23;3.83;;;13.60;99.90;;;;;;5040602;28;20047;-76
2022/05/21 04:56:34;;;;;;;14.32;3.58;;;13.70;99.90;;;;;;5070968;28;20490;-77
2022/05/21 04:58:59;;;;;;;19.67;4.00;;;13.70;99.90;;;;;;5082907;28;20048;-78
2022/05/21 05:01:25;;;;;;;16.35;3.28;;;13.80;99.90;;;;;;5077003;28;20106;-75
2022/05/21 05:03:51;;;;;;;12.38;2.75;;;13.70;99.90;;;;;;5066632;28;20556;-76
2022/05/21 05:06:16;;;;;;;15.15;3.53;;;13.70;99.90;;;;;;5060299;28;20040;-77
2022/05/21 05:08:42;;;;;;;16.45;3.40;;;13.70;99.90;;;;;;5091147;28;20048;-76
2022/05/21 05:11:07;;;;;;;13.13;3.20;;;13.70;99.90;;;;;;5070753;28;20093;-76
2022/05/21 05:13:33;;;;;;;14.10;3.53;;;13.70;99.90;;;;;;5074035;28;20056;-76
2022/05/21 05:15:59;;;;;;;8.57;3.25;;;13.70;99.90;;;;;;5071247;28;20515;-76
2022/05/21 05:18:30;;;;;;;11.52;2.67;;;13.80;99.90;;;;;;5091034;28;20036;-76
2022/05/21 05:20:56;;;;;;;21.75;3.53;;;13.80;99.90;;;;;;5073076;28;20043;-76
2022/05/21 05:23:22;;;;;;;18.67;3.30;;;13.70;99.90;;;;;;5053882;28;20036;-76
2022/05/21 05:25:47;;;;;;;11.77;2.63;;;13.80;99.90;;;;;;5067387;28;20060;-77
2022/05/21 05:28:19;;;;;;;21.20;3.08;;;13.80;99.90;;;;;;5046927;28;20068;-77
2022/05/21 05:30:46;;;;;;;14.82;3.22;;;13.80;99.90;;;;;;5055945;28;20071;-76
2022/05/21 05:33:13;;;;;;;12.07;2.90;;;13.80;99.90;;;;;;5066743;28;20333;-77
2022/05/21 05:35:39;;;;;;;13.50;2.78;;;13.80;99.90;;;;;;5059679;28;20060;-76
2022/05/21 05:38:10;;;;;;;14.18;3.15;;;13.80;99.90;;;;;;5070685;28;20051;-77
2022/05/21 05:40:37;;;;;;;12.77;2.90;;;13.90;99.90;;;;;;5077639;28;20052;-77
2022/05/21 05:43:03;;;;;;;13.23;3.22;;;13.90;99.90;;;;;;5055614;28;20332;-76
2022/05/21 05:45:29;;;;;;;15.70;3.38;;;13.90;99.90;;;;;;5064531;28;20042;-75
2022/05/21 05:47:55;;;;;;;11.52;3.03;;;13.90;99.90;;;;;;5036229;28;20059;-75
2022/05/21 05:50:21;;;;;;;19.20;3.25;;;14.00;99.90;;;;;;5070622;28;20037;-78
2022/05/21 05:52:46;;;;;;;16.60;3.17;;;14.00;99.90;;;;;;5091076;28;20059;-76
2022/05/21 05:55:13;;;;;;;18.60;2.95;;;14.00;99.90;;;;;;5082817;28;20053;-76
2022/05/21 05:57:39;;;;;;;13.57;3.20;;;14.00;99.90;;;;;;5079784;28;20444;-75
2022/05/21 06:00:08;;;;;;;13.15;3.05;;;14.00;99.90;;;;;;5072154;28;20127;-76
2022/05/21 06:03:15;;;;;;;16.08;3.40;;;14.00;99.90;;;;;;5066953;28;20531;-76
2022/05/21 06:05:22;;;;;;;11.82;2.58;;;13.90;99.90;;;;;;5077991;28;20135;-76
2022/05/21 06:07:51;;;;;;;12.13;2.13;;;14.10;99.90;;;;;;5066105;28;20116;-76
2022/05/21 06:10:21;;;;;;;14.38;2.83;;;14.10;99.90;;;;;;5089782;28;20126;-75
2022/05/21 06:12:48;;;;;;;11.90;2.75;;;14.20;99.90;;;;;;5078408;28;20097;-76
2022/05/21 06:15:14;;;;;;;10.10;3.28;;;14.20;99.90;;;;;;5078751;28;20154;-75
2022/05/21 06:17:40;;;;;;;13.43;3.10;;;14.20;99.90;;;;;;5089233;28;20051;-75
2022/05/21 06:20:09;;;;;;;12.68;2.67;;;14.20;99.90;;;;;;5088156;28;20228;-76
2022/05/21 06:22:35;;;;;;;17.20;3.17;;;14.30;99.90;;;;;;5101280;28;20075;-75
2022/05/21 06:25:01;;;;;;;21.13;3.00;;;14.30;99.90;;;;;;5076425;28;20066;-77
2022/05/21 06:27:27;;;;;;;12.82;2.88;;;14.30;99.90;;;;;;5106908;28;20115;-76
2022/05/21 06:29:53;;;;;;;23.30;3.47;;;14.30;99.90;;;;;;5084676;28;20130;-76
2022/05/21 06:32:21;;;;;;;17.30;3.03;;;14.30;99.90;;;;;;5076538;28;20119;-77
2022/05/21 06:34:50;;;;;;;;;;;14.30;99.90;;;;;;5088174;28;20036;-75
2022/05/21 06:37:16;;;;;;;11.70;3.15;;;14.30;99.90;;;;;;5066379;28;19943;-79
2022/05/21 06:39:44;;;;;;;15.05;3.05;;;14.40;99.90;;;;;;5091278;28;20036;-76
2022/05/21 06:42:11;;;;;;;18.20;3.25;;;14.50;99.90;;;;;;5094861;28;20043;-76
2022/05/21 06:44:37;;;;;;;13.43;2.75;;;14.50;99.90;;;;;;5107758;28;20038;-76
2022/05/21 06:47:03;;;;;;;15.00;3.60;;;14.50;99.90;;;;;;5088456;28;20434;-76
2022/05/21 06:49:29;;;;;;;14.02;3.50;;;14.60;99.90;;;;;;5078355;28;20047;-75
2022/05/21 06:51:56;;;;;;;15.27;2.45;;;14.60;99.90;;;;;;5090153;28;20432;-76
2022/05/21 06:54:23;;;;;;;11.18;2.75;;;14.60;99.90;;;;;;5086921;28;20877;-76
2022/05/21 06:56:48;;;;;;;11.48;2.85;;;14.60;99.90;;;;;;5070478;28;20503;-76
2022/05/21 06:59:15;;;;;;;12.00;2.83;;;14.60;99.90;;;;;;5062974;28;20052;-76
2022/05/21 07:01:41;;;;;;;13.13;2.90;;;14.60;99.90;;;;;;5067307;28;20362;-76
2022/05/21 07:04:06;;;;;;;16.20;3.25;;;14.60;99.90;;;;;;5062741;28;20071;-76
2022/05/21 07:09:16;;;;;;;17.25;3.67;;;14.50;99.90;;;;;;5039225;28;20049;-76
2022/05/21 07:11:42;;;;;;;17.52;3.22;;;14.60;99.90;;;;;;5042909;28;20051;-75
2022/05/21 07:14:07;;;;;;;12.77;2.60;;;14.60;99.90;;;;;;5046249;28;20471;-76
2022/05/21 07:16:33;;;;;;;11.90;2.97;;;14.70;99.90;;;;;;5060943;28;20404;-76
2022/05/21 07:18:59;;;;;;;12.63;2.92;;;14.80;99.90;;;;;;5062919;28;20976;-76
2022/05/21 07:21:24;;;;;;;12.55;2.80;;;14.80;99.90;;;;;;5066965;28;20045;-76
2022/05/21 07:23:50;;;;;;;15.85;3.15;;;14.80;99.90;;;;;;5066482;28;20140;-77
2022/05/21 07:26:17;;;;;;;12.10;2.92;;;14.80;99.90;;;;;;5066633;28;20539;-75
2022/05/21 07:28:43;;;;;;;14.55;2.78;;;14.90;99.90;;;;;;5067307;28;20063;-78
2022/05/21 07:31:10;;;;;;;16.38;2.65;;;14.90;99.90;;;;;;5069767;28;20040;-77
2022/05/21 07:33:35;;;;;;;13.40;2.92;;;14.90;99.90;;;;;;5066105;28;20428;-77
2022/05/21 07:36:01;;;;;;;13.55;2.72;;;14.90;99.90;;;;;;5066580;28;20036;-75
2022/05/21 07:38:27;;;;;;;14.55;3.40;;;15.00;99.90;;;;;;5050255;28;20131;-76
2022/05/21 07:40:53;;;;;;;18.42;2.95;;;15.10;99.90;;;;;;5050536;28;20131;-76
2022/05/21 07:43:27;;;;;;;15.43;3.00;;;15.10;99.90;;;;;;5068413;28;20119;-76
2022/05/21 07:45:59;;;;;;;15.77;3.10;;;15.20;99.90;;;;;;5056422;28;20485;-75
2022/05/21 07:48:26;;;;;;;13.90;3.05;;;15.30;99.90;;;;;;5045889;28;20044;-76
2022/05/21 07:50:56;;;;;;;13.18;2.67;;;15.30;99.90;;;;;;5049714;28;20113;-76
2022/05/21 07:53:30;;;;;;;11.93;2.97;;;15.40;99.90;;;;;;5051239;28;20050;-75
2022/05/21 07:55:56;;;;;;;19.98;3.22;;;15.40;99.90;;;;;;5078920;28;20058;-76
2022/05/21 07:58:25;;;;;;;8.38;2.15;;;15.50;99.90;;;;;;5087473;28;20043;-76
2022/05/21 08:00:51;;;;;;;10.98;2.83;;;15.40;99.90;;;;;;5088346;28;20171;-75
2022/05/21 08:03:24;;;;;;;12.98;2.20;;;15.40;99.90;;;;;;5087316;28;20044;-76
2022/05/21 08:05:50;;;;;;;19.05;2.95;;;15.40;99.90;;;;;;5088519;28;20103;-76
2022/05/21 08:08:16;;;;;;;16.83;3.85;;;15.50;99.90;;;;;;5089070;28;20058;-79
2022/05/21 08:10:44;;;;;;;11.68;2.70;;;15.50;99.90;;;;;;5087993;28;20043;-76
2022/05/21 08:13:11;;;;;;;16.73;2.75;;;15.50;99.90;;;;;;5070468;28;20093;-75
2022/05/21 08:15:41;;;;;;;14.15;2.50;;;15.50;99.90;;;;;;5088711;28;21618;-76
2022/05/21 08:18:06;;;;;;;12.63;2.42;;;15.50;99.90;;;;;;5086602;28;20047;-75
2022/05/21 08:20:36;;;;;;;12.43;2.00;;;15.50;99.90;;;;;;5087965;28;20044;-77
2022/05/21 08:28:35;;;;;;;14.88;2.88;;;15.60;99.90;;;;;;5075951;28;20039;-77
2022/05/21 08:31:04;;;;;;;11.95;2.42;;;15.70;99.90;;;;;;5087114;28;20101;-76
2022/05/21 08:33:29;;;;;;;11.63;3.35;;;15.70;99.90;;;;;;5087055;28;20123;-78
2022/05/21 08:35:55;;;;;;;15.13;2.50;;;15.70;99.90;;;;;;5081545;28;20119;-78
2022/05/21 08:38:21;;;;;;;16.20;3.53;;;15.70;99.90;;;;;;5072265;28;20498;-77
2022/05/21 08:41:03;;;;;;;11.55;3.00;;;15.70;99.90;;;;;;5091775;28;20040;-77
2022/05/21 08:44:09;;;;;;;11.27;2.45;;;15.70;99.90;;;;;;5091916;28;20552;-76
2022/05/21 08:46:54;;;;;;;10.85;2.47;;;15.70;99.90;;;;;;5088630;28;20573;-77
2022/05/21 08:49:33;;;;;;;14.95;2.05;;;15.70;99.90;;;;;;5089852;28;20040;-77
2022/05/21 08:52:07;;;;;;;13.25;2.85;;;15.80;99.90;;;;;;5092398;28;20446;-76
2022/05/21 08:54:38;;;;;;;14.88;2.63;;;15.90;99.90;;;;;;5072089;28;20056;-77
2022/05/21 08:57:07;;;;;;;11.82;2.78;;;15.90;99.90;;;;;;5074424;28;20535;-76
2022/05/21 08:59:42;;;;;;;11.55;2.63;;;16.00;99.90;;;;;;5090601;28;20040;-76
2022/05/21 09:02:14;;;;;;;9.48;2.45;;;16.00;99.90;;;;;;5091946;28;20551;-76
2022/05/21 09:04:41;;;;;;;9.85;3.08;;;16.10;99.90;;;;;;5090186;28;20094;-77
2022/05/21 09:07:20;;;;;;;14.95;2.42;;;16.10;99.90;;;;;;5072412;28;20492;-76
2022/05/21 09:09:48;;;;;;;11.23;2.50;;;16.20;99.90;;;;;;5092649;28;20080;-77
2022/05/21 09:12:21;;;;;;;11.60;2.25;;;16.10;99.90;;;;;;5073023;28;20044;-76
2022/05/21 09:14:53;;;;;;;9.07;2.25;;;16.00;99.90;;;;;;5090910;28;20066;-75
2022/05/21 09:17:24;;;;;;;11.10;2.58;;;16.00;99.90;;;;;;5072567;28;20506;-78
2022/05/21 09:19:58;;;;;;;10.77;2.03;;;16.10;99.90;;;;;;5073231;28;20058;-78
2022/05/21 09:22:36;;;;;;;18.42;2.70;;;16.20;99.90;;;;;;5072635;28;20036;-80
2022/05/21 09:25:23;;;;;;;15.38;2.88;;;16.20;99.90;;;;;;5092054;28;20040;-78
2022/05/21 09:28:04;;;;;;;12.02;2.85;;;16.20;99.90;;;;;;5088080;28;20084;-77
2022/05/21 09:30:33;;;;;;;11.15;2.05;;;16.20;99.90;;;;;;5090644;28;20044;-77
2022/05/21 09:33:22;;;;;;;14.18;2.88;;;16.30;99.90;;;;;;5088421;28;20056;-77
2022/05/21 09:35:54;;;;;;;11.35;2.75;;;16.30;99.90;;;;;;5090614;28;20048;-78
2022/05/21 09:38:26;;;;;;;7.63;2.38;;;16.30;99.90;;;;;;5091125;28;20044;-77
2022/05/21 09:41:12;;;;;;;;;;;16.40;99.90;;;;;;5090974;28;20044;-77
2022/05/21 09:46:31;;;;;;;12.88;2.00;;;16.50;99.90;;;;;;5089286;28;20074;-78
2022/05/21 09:49:15;;;;;;;11.90;2.13;;;16.50;99.90;;;;;;5071586;28;20043;-76
2022/05/21 09:51:54;;;;;;;14.25;2.30;;;16.50;99.90;;;;;;5073819;28;20148;-76
2022/05/21 09:54:25;;;;;;;10.93;1.83;;;16.50;99.90;;;;;;5073319;28;20051;-78
2022/05/21 09:56:53;;;;;;;10.95;2.50;;;16.50;99.90;;;;;;5072544;28;20510;-77
2022/05/21 09:59:23;;;;;;;18.55;3.08;;;16.50;99.90;;;;;;5070528;28;20052;-77
2022/05/21 10:01:53;;;;;;;11.73;2.28;;;16.50;99.90;;;;;;5052424;28;20082;-77
2022/05/21 10:04:43;;;;;;;12.27;1.98;;;16.50;99.90;;;;;;5049032;28;20492;-76
2022/05/21 10:10:58;;;;;;;9.30;2.28;;;16.50;99.90;;;;;;5052054;28;20146;-76
2022/05/21 10:12:46;;;;;;;9.43;2.17;;;16.50;99.90;;;;;;5067493;28;20003;-77
2022/05/21 10:15:26;;;;;;;7.88;1.90;;;16.50;99.90;;;;;;5070570;28;20159;-76
2022/05/21 10:18:35;;;;;;;10.93;2.40;;;16.50;99.90;;;;;;5050902;28;20063;-76
2022/05/21 10:21:09;;;;;;;9.68;2.00;;;16.50;99.90;;;;;;5070978;28;20093;-77
2022/05/21 10:23:43;;;;;;;11.20;2.17;;;16.50;99.90;;;;;;5070744;28;20114;-76
2022/05/21 10:26:55;;;;;;;7.35;1.77;;;16.50;99.90;;;;;;5069939;28;20036;-77
2022/05/21 10:29:40;;;;;;;13.55;2.20;;;16.50;99.90;;;;;;5023145;28;20140;-77
2022/05/21 10:32:44;;;;;;;11.45;2.95;;;16.50;99.90;;;;;;5069753;28;20108;-77
2022/05/21 10:35:28;;;;;;;13.23;2.83;;;16.60;99.90;;;;;;5070692;28;20214;-76
2022/05/21 10:38:03;;;;;;;13.32;1.80;;;16.60;99.90;;;;;;5070700;28;20052;-76
2022/05/21 10:40:41;;;;;;;11.00;2.08;;;16.70;99.90;;;;;;5071111;28;20036;-76
2022/05/21 10:43:22;;;;;;;14.80;2.22;;;16.80;99.90;;;;;;5070813;28;20055;-76
2022/05/21 10:46:09;;;;;;;11.15;2.13;;;16.90;99.90;;;;;;5069552;28;20075;-76
2022/05/21 10:48:51;;;;;;;10.07;1.92;;;17.00;99.90;;;;;;5049308;28;20080;-76
2022/05/21 10:51:28;;;;;;;6.82;1.83;;;17.00;99.90;;;;;;5049456;28;20129;-76
2022/05/21 10:54:12;;;;;;;11.07;1.90;;;17.00;99.90;;;;;;5044706;28;20070;-76
2022/05/21 10:57:08;;;;;;;14.63;2.72;;;17.10;99.90;;;;;;5085306;28;20055;-77
2022/05/21 10:59:46;;;;;;;11.07;2.10;;;17.10;99.90;;;;;;5087903;28;20134;-77
2022/05/21 11:02:30;;;;;;;7.82;1.90;;;17.10;99.90;;;;;;5090094;28;20517;-77
2022/05/21 11:05:49;;;;;;;12.65;2.47;;;17.30;99.90;;;;;;5080782;28;20041;-81
2022/05/21 11:08:32;;;;;;;16.83;2.40;;;17.30;99.90;;;;;;4997043;28;20066;-80
2022/05/21 11:11:06;;;;;;;11.93;2.20;;;17.40;99.90;;;;;;5086520;28;20111;-80
2022/05/21 11:14:11;;;;;;;8.65;1.83;;;17.50;99.90;;;;;;5067348;28;20044;-79
2022/05/21 11:16:51;;;;;;;12.65;2.03;;;17.60;99.90;;;;;;5066714;28;20056;-78
2022/05/21 11:19:31;;;;;;;12.45;2.38;;;17.40;99.90;;;;;;5085633;28;20102;-79
2022/05/21 11:22:04;;;;;;;8.57;2.42;;;17.40;99.90;;;;;;5076206;28;20203;-76
2022/05/21 11:24:40;;;;;;;10.23;2.30;;;17.40;99.90;;;;;;5070859;28;20072;-77
2022/05/21 11:27:28;;;;;;;9.68;1.58;;;17.50;99.90;;;;;;5086979;28;20055;-76
2022/05/21 11:30:05;;;;;;;6.63;1.52;;;17.50;99.90;;;;;;5089179;28;20047;-76
2022/05/21 11:38:34;;;;;;;12.20;2.53;;;17.80;99.90;;;;;;5061477;28;20119;-77
2022/05/21 11:41:30;;;;;;;11.85;2.28;;;17.90;99.90;;;;;;5051944;28;20052;-77
2022/05/21 11:47:08;;;;;;;10.27;1.85;;;18.00;99.90;;;;;;5073618;28;20794;-77
2022/05/21 11:49:45;;;;;;;14.52;2.15;;;18.00;99.90;;;;;;5076005;28;20632;-77
2022/05/21 11:52:26;;;;;;;7.10;1.80;;;18.10;99.90;;;;;;5070448;28;20044;-77
2022/05/21 11:55:14;;;;;;;7.50;2.05;;;18.40;99.90;;;;;;5075348;28;20622;-75
2022/05/21 11:57:42;;;;;;;8.88;1.88;;;18.30;99.90;;;;;;5068095;28;20055;-75
2022/05/21 12:00:17;;;;;;;10.20;1.92;;;18.50;99.90;;;;;;5051422;28;20044;-76
2022/05/21 12:02:55;;;;;;;8.85;1.75;;;18.50;99.90;;;;;;5048608;28;20075;-75
2022/05/21 12:05:41;;;;;;;11.98;2.08;;;18.50;99.90;;;;;;5063964;28;20033;-76
2022/05/21 12:08:34;;;;;;;11.10;1.88;;;18.60;99.90;;;;;;5049070;28;20049;-77
2022/05/21 12:11:04;;;;;;;10.45;2.10;;;18.80;99.90;;;;;;5047753;28;20159;-76
2022/05/21 12:13:33;;;;;;;11.50;2.30;;;18.90;99.90;;;;;;5068442;28;20566;-76
2022/05/21 12:16:21;;;;;;;6.25;2.10;;;19.00;99.90;;;;;;5068031;28;20053;-76
2022/05/21 12:18:53;;;;;;;16.27;2.92;;;19.00;99.90;;;;;;5045741;28;20041;-75
2022/05/21 12:21:28;;;;;;;10.30;2.40;;;19.10;99.90;;;;;;5068579;28;20048;-77
2022/05/21 12:23:54;;;;;;;14.30;2.78;;;19.20;99.90;;;;;;5047923;28;20067;-75
2022/05/21 12:26:24;;;;;;;13.50;3.42;;;19.20;99.90;;;;;;5068037;28;20044;-76
2022/05/21 12:28:56;;;;;;;14.55;2.88;;;19.20;99.90;;;;;;5048685;28;20468;-76
2022/05/21 12:31:27;;;;;;;10.30;2.85;;;19.20;99.90;;;;;;5063417;28;20045;-76
2022/05/21 12:34:34;;;;;;;11.20;2.58;;;19.10;99.90;;;;;;5045215;28;20051;-76
2022/05/21 12:37:10;;;;;;;10.98;2.15;;;19.10;99.90;;;;;;5048962;28;20448;-76
2022/05/21 12:40:20;;;;;;;10.32;2.53;;;19.00;99.90;;;;;;5066970;28;20045;-75
2022/05/21 12:42:49;;;;;;;7.75;2.10;;;19.10;99.90;;;;;;4945770;29;20063;-75
2022/05/21 12:45:36;;;;;;;10.68;2.22;;;19.10;99.90;;;;;;5018695;28;20502;-76
2022/05/21 12:48:10;;;;;;;12.18;2.25;;;19.10;99.90;;;;;;5047586;28;20080;-76
2022/05/21 12:50:46;;;;;;;8.80;2.28;;;19.00;99.90;;;;;;5037764;28;20054;-75
2022/05/21 12:53:12;;;;;;;12.27;2.05;;;19.00;99.90;;;;;;5067594;28;20048;-75
2022/05/21 12:55:40;;;;;;;9.13;1.95;;;18.90;99.90;;;;;;5048189;28;20049;-76
2022/05/21 12:58:09;;;;;;;7.78;1.38;;;18.90;99.90;;;;;;5078904;28;20055;-76
2022/05/21 13:00:37;;;;;;;7.18;1.48;;;18.80;99.90;;;;;;5042740;28;20041;-77
2022/05/21 13:03:08;;;;;;;10.00;1.60;;;19.00;99.90;;;;;;5048724;28;20052;-76
2022/05/21 13:05:47;;;;;;;7.65;1.50;;;18.80;99.90;;;;;;5068944;28;20045;-76
2022/05/21 13:08:14;;;;;;;4.10;1.17;;;18.80;99.90;;;;;;5029942;28;20044;-75
2022/05/21 13:10:52;;;;;;;6.43;1.48;;;18.80;99.90;;;;;;5055761;28;20029;-75
2022/05/21 13:13:23;;;;;;;5.68;1.27;;;18.80;99.90;;;;;;5087541;28;20047;-75
2022/05/21 13:16:00;;;;;;;7.10;1.67;;;18.70;99.90;;;;;;5081987;28;20368;-76
2022/05/21 13:18:55;;;;;;;7.43;1.95;;;18.80;99.90;;;;;;5048663;28;20464;-76
2022/05/21 13:21:36;;;;;;;7.50;1.60;;;18.70;99.90;;;;;;5063565;28;20436;-76
2022/05/21 13:24:32;;;;;;;15.95;1.77;;;18.80;99.90;;;;;;5071489;28;20036;-75
2022/05/21 13:27:02;;;;;;;10.93;1.85;;;18.90;99.90;;;;;;5081017;28;20159;-75